createdAt,value
2019-04-11T00:00:15.666Z,1014.17
2019-04-11T00:01:16.335Z,1014.15
2019-04-11T00:02:16.421Z,1014.17
2019-04-11T00:03:15.640Z,1014.19
2019-04-11T00:04:15.744Z,1014.20
2019-04-11T00:05:15.564Z,1014.22
2019-04-11T00:06:15.566Z,1014.21
2019-04-11T00:07:16.211Z,1014.19
2019-04-11T00:08:15.500Z,1014.24
2019-04-11T00:09:16.646Z,1014.21
2019-04-11T00:10:15.462Z,1014.24
2019-04-11T00:11:15.587Z,1014.29
2019-04-11T00:12:16.556Z,1014.26
2019-04-11T00:13:21.684Z,1014.29
2019-04-11T00:14:15.919Z,1014.28
2019-04-11T00:15:16.066Z,1014.30
2019-04-11T00:16:15.336Z,1014.29
2019-04-11T00:17:15.317Z,1014.30
2019-04-11T00:18:15.295Z,1014.31
2019-04-11T00:19:15.602Z,1014.33
2019-04-11T00:20:15.986Z,1014.37
2019-04-11T00:21:16.946Z,1014.34
2019-04-11T00:22:15.528Z,1014.36
2019-04-11T00:23:16.266Z,1014.35
2019-04-11T00:24:15.168Z,1014.34
2019-04-11T00:25:15.686Z,1014.36
2019-04-11T00:26:15.982Z,1014.35
2019-04-11T00:27:15.110Z,1014.36
2019-04-11T00:28:15.373Z,1014.35
2019-04-11T00:29:16.324Z,1014.32
2019-04-11T00:30:15.678Z,1014.30
2019-04-11T00:31:15.021Z,1014.32
2019-04-11T00:32:15.005Z,1014.34
2019-04-11T00:33:15.930Z,1014.34
2019-04-11T00:34:15.116Z,1014.36
2019-04-11T00:35:15.487Z,1014.31
2019-04-11T00:36:14.921Z,1014.29
2019-04-11T00:37:14.901Z,1014.32
2019-04-11T00:38:15.909Z,1014.33
2019-04-11T00:39:15.220Z,1014.30
2019-04-11T00:40:15.197Z,1014.31
2019-04-11T00:41:15.474Z,1014.31
2019-04-11T00:42:14.807Z,1014.34
2019-04-11T00:43:27.145Z,1014.36
2019-04-11T00:44:14.770Z,1014.35
2019-04-11T00:45:15.721Z,1014.37
2019-04-11T00:46:14.713Z,1014.43
2019-04-11T00:47:15.146Z,1014.44
2019-04-11T00:48:14.672Z,1014.41
2019-04-11T00:49:14.648Z,1014.42
2019-04-11T00:50:14.882Z,1014.41
2019-04-11T00:51:14.605Z,1014.42
2019-04-11T00:52:14.585Z,1014.42
2019-04-11T00:53:14.566Z,1014.40
2019-04-11T00:54:14.541Z,1014.44
2019-04-11T00:55:15.391Z,1014.41
2019-04-11T00:56:15.567Z,1014.39
2019-04-11T00:57:14.883Z,1014.41
2019-04-11T00:58:14.459Z,1014.39
2019-04-11T00:59:14.440Z,1014.40
2019-04-11T01:00:15.184Z,1014.41
2019-04-11T01:01:15.567Z,1014.42
2019-04-11T01:02:15.543Z,1014.41
2019-04-11T01:03:14.355Z,1014.40
2019-04-11T01:04:14.334Z,1014.48
2019-04-11T01:05:15.140Z,1014.41
2019-04-11T01:06:14.291Z,1014.40
2019-04-11T01:07:14.527Z,1014.45
2019-04-11T01:08:14.258Z,1014.45
2019-04-11T01:09:14.227Z,1014.45
2019-04-11T01:10:14.209Z,1014.46
2019-04-11T01:11:14.193Z,1014.42
2019-04-11T01:12:14.374Z,1014.44
2019-04-11T01:13:15.680Z,1014.45
2019-04-11T01:14:15.263Z,1014.44
2019-04-11T01:15:15.200Z,1014.48
2019-04-11T01:16:14.081Z,1014.51
2019-04-11T01:17:14.931Z,1014.46
2019-04-11T01:18:14.038Z,1014.50
2019-04-11T01:19:14.274Z,1014.49
2019-04-11T01:20:13.996Z,1014.49
2019-04-11T01:21:13.979Z,1014.51
2019-04-11T01:22:14.036Z,1014.47
2019-04-11T01:23:15.107Z,1014.51
2019-04-11T01:24:13.923Z,1014.51
2019-04-11T01:25:14.721Z,1014.53
2019-04-11T01:26:13.917Z,1014.53
2019-04-11T01:27:13.975Z,1014.54
2019-04-11T01:28:14.311Z,1014.51
2019-04-11T01:29:13.807Z,1014.54
2019-04-11T01:30:13.796Z,1014.52
2019-04-11T01:31:13.764Z,1014.54
2019-04-11T01:32:13.921Z,1014.52
2019-04-11T01:33:13.721Z,1014.53
2019-04-11T01:34:13.705Z,1014.57
2019-04-11T01:35:13.693Z,1014.55
2019-04-11T01:36:13.779Z,1014.57
2019-04-11T01:37:13.637Z,1014.55
2019-04-11T01:38:14.735Z,1014.58
2019-04-11T01:39:13.795Z,1014.56
2019-04-11T01:40:13.811Z,1014.52
2019-04-11T01:41:14.119Z,1014.56
2019-04-11T01:42:13.531Z,1014.61
2019-04-11T01:43:13.607Z,1014.58
2019-04-11T01:44:14.494Z,1014.59
2019-04-11T01:45:13.606Z,1014.60
2019-04-11T01:46:14.040Z,1014.61
2019-04-11T01:47:13.426Z,1014.59
2019-04-11T01:48:13.402Z,1014.57
2019-04-11T01:49:14.308Z,1014.61
2019-04-11T01:50:13.570Z,1014.58
2019-04-11T01:51:13.759Z,1014.61
2019-04-11T01:52:13.980Z,1014.60
2019-04-11T01:53:13.297Z,1014.65
2019-04-11T01:54:13.316Z,1014.63
2019-04-11T01:55:14.326Z,1014.64
2019-04-11T01:56:13.240Z,1014.63
2019-04-11T01:57:13.867Z,1014.64
2019-04-11T01:58:14.189Z,1014.64
2019-04-11T01:59:13.239Z,1014.65
2019-04-11T02:00:13.152Z,1014.66
2019-04-11T02:01:13.128Z,1014.68
2019-04-11T02:02:13.589Z,1014.64
2019-04-11T02:03:13.082Z,1014.65
2019-04-11T02:04:14.018Z,1014.68
2019-04-11T02:05:13.042Z,1014.66
2019-04-11T02:06:13.902Z,1014.67
2019-04-11T02:07:14.199Z,1014.71
2019-04-11T02:08:13.297Z,1014.65
2019-04-11T02:09:13.766Z,1014.68
2019-04-11T02:10:12.936Z,1014.71
2019-04-11T02:11:13.014Z,1014.67
2019-04-11T02:12:14.097Z,1014.69
2019-04-11T02:13:12.872Z,1014.73
2019-04-11T02:14:16.537Z,1014.73
2019-04-11T02:15:12.830Z,1014.69
2019-04-11T02:16:12.809Z,1014.72
2019-04-11T02:17:12.788Z,1014.75
2019-04-11T02:18:13.095Z,1014.76
2019-04-11T02:19:12.742Z,1014.76
2019-04-11T02:20:12.720Z,1014.77
2019-04-11T02:21:13.634Z,1014.76
2019-04-11T02:22:13.669Z,1014.77
2019-04-11T02:23:13.020Z,1014.76
2019-04-11T02:24:12.645Z,1014.80
2019-04-11T02:25:12.622Z,1014.82
2019-04-11T02:26:13.397Z,1014.87
2019-04-11T02:27:12.621Z,1014.83
2019-04-11T02:28:12.726Z,1014.84
2019-04-11T02:29:13.059Z,1014.82
2019-04-11T02:30:14.211Z,1014.87
2019-04-11T02:31:13.855Z,1014.86
2019-04-11T02:32:12.796Z,1014.86
2019-04-11T02:33:14.163Z,1014.90
2019-04-11T02:34:13.633Z,1014.88
2019-04-11T02:35:13.463Z,1014.87
2019-04-11T02:36:13.730Z,1014.91
2019-04-11T02:37:13.449Z,1014.92
2019-04-11T02:38:14.082Z,1014.92
2019-04-11T02:39:17.097Z,1014.95
2019-04-11T02:40:13.510Z,1014.92
2019-04-11T02:41:14.082Z,1014.97
2019-04-11T02:42:12.277Z,1014.95
2019-04-11T02:43:13.370Z,1014.94
2019-04-11T02:44:30.854Z,1014.94
2019-04-11T02:45:24.870Z,1014.95
2019-04-11T02:46:23.251Z,1014.95
2019-04-11T02:47:18.204Z,1014.94
2019-04-11T02:48:13.666Z,1014.96
2019-04-11T02:49:12.103Z,1014.95
2019-04-11T02:50:16.070Z,1014.97
2019-04-11T02:51:12.500Z,1014.96
2019-04-11T02:52:13.391Z,1014.96
2019-04-11T02:53:12.565Z,1014.96
2019-04-11T02:54:13.542Z,1014.99
2019-04-11T02:55:13.020Z,1014.99
2019-04-11T02:56:11.954Z,1014.99
2019-04-11T02:57:12.166Z,1014.99
2019-04-11T02:58:12.484Z,1014.97
2019-04-11T02:59:13.340Z,1014.95
2019-04-11T03:00:13.159Z,1014.96
2019-04-11T03:01:12.914Z,1014.94
2019-04-11T03:02:16.424Z,1014.97
2019-04-11T03:03:12.981Z,1014.94
2019-04-11T03:04:12.907Z,1014.95
2019-04-11T03:05:13.627Z,1014.95
2019-04-11T03:06:11.831Z,1014.92
2019-04-11T03:07:12.258Z,1014.96
2019-04-11T03:08:15.687Z,1014.96
2019-04-11T03:09:13.329Z,1014.98
2019-04-11T03:10:13.746Z,1014.95
2019-04-11T03:11:11.821Z,1014.97
2019-04-11T03:12:13.285Z,1014.95
2019-04-11T03:13:12.669Z,1014.95
2019-04-11T03:14:12.071Z,1014.96
2019-04-11T03:15:28.826Z,1014.99
2019-04-11T03:16:27.872Z,1014.96
2019-04-11T03:17:19.470Z,1014.98
2019-04-11T03:18:18.498Z,1014.97
2019-04-11T03:19:25.415Z,1014.99
2019-04-11T03:20:23.019Z,1015.01
2019-04-11T03:21:17.962Z,1014.99
2019-04-11T03:22:11.590Z,1015.03
2019-04-11T03:23:14.515Z,1015.01
2019-04-11T03:24:13.028Z,1015.05
2019-04-11T03:25:11.673Z,1015.01
2019-04-11T03:26:12.367Z,1015.04
2019-04-11T03:27:12.028Z,1015.02
2019-04-11T03:28:16.766Z,1015.05
2019-04-11T03:29:12.836Z,1015.05
2019-04-11T03:30:16.298Z,1015.06
2019-04-11T03:31:53.746Z,1015.04
2019-04-11T03:32:48.886Z,1015.07
2019-04-11T03:34:15.721Z,1015.08
2019-04-11T03:35:02.869Z,1015.09
2019-04-11T03:37:38.594Z,1015.07
2019-04-11T03:38:36.864Z,1015.06
2019-04-11T03:39:32.848Z,1015.11
2019-04-11T03:40:27.207Z,1015.07
2019-04-11T03:41:26.991Z,1015.08
2019-04-11T03:42:29.558Z,1015.09
2019-04-11T03:43:24.158Z,1015.09
2019-04-11T03:44:19.133Z,1015.12
2019-04-11T03:45:33.424Z,1015.09
2019-04-11T03:46:30.973Z,1015.11
2019-04-11T03:47:25.366Z,1015.13
2019-04-11T03:48:27.789Z,1015.14
2019-04-11T03:49:23.955Z,1015.14
2019-04-11T03:50:16.645Z,1015.11
2019-04-11T03:51:11.440Z,1015.14
2019-04-11T03:52:12.187Z,1015.13
2019-04-11T03:53:11.654Z,1015.12
2019-04-11T03:54:11.606Z,1015.16
2019-04-11T03:55:11.148Z,1015.18
2019-04-11T03:56:12.110Z,1015.15
2019-04-11T03:57:10.624Z,1015.16
2019-04-11T03:58:10.615Z,1015.14
2019-04-11T03:59:14.012Z,1015.16
2019-04-11T04:00:12.725Z,1015.18
2019-04-11T04:01:11.549Z,1015.19
2019-04-11T04:02:12.557Z,1015.20
2019-04-11T04:03:11.237Z,1015.21
2019-04-11T04:04:11.274Z,1015.20
2019-04-11T04:05:10.723Z,1015.23
2019-04-11T04:06:10.457Z,1015.20
2019-04-11T04:07:12.332Z,1015.26
2019-04-11T04:08:10.879Z,1015.26
2019-04-11T04:09:10.825Z,1015.32
2019-04-11T04:10:13.127Z,1015.31
2019-04-11T04:11:10.315Z,1015.31
2019-04-11T04:12:11.465Z,1015.30
2019-04-11T04:13:15.378Z,1015.31
2019-04-11T04:14:10.525Z,1015.30
2019-04-11T04:15:13.021Z,1015.32
2019-04-11T04:16:21.194Z,1015.29
2019-04-11T04:17:11.013Z,1015.32
2019-04-11T04:18:12.020Z,1015.34
2019-04-11T04:19:13.578Z,1015.33
2019-04-11T04:20:11.075Z,1015.34
2019-04-11T04:21:10.821Z,1015.33
2019-04-11T04:22:11.001Z,1015.36
2019-04-11T04:23:11.859Z,1015.35
2019-04-11T04:24:10.548Z,1015.39
2019-04-11T04:25:10.364Z,1015.37
2019-04-11T04:26:11.953Z,1015.39
2019-04-11T04:27:10.324Z,1015.37
2019-04-11T04:28:11.660Z,1015.42
2019-04-11T04:29:11.362Z,1015.41
2019-04-11T04:30:10.877Z,1015.43
2019-04-11T04:31:11.495Z,1015.42
2019-04-11T04:32:09.859Z,1015.45
2019-04-11T04:33:10.704Z,1015.44
2019-04-11T04:34:11.335Z,1015.49
2019-04-11T04:35:14.475Z,1015.49
2019-04-11T04:36:10.889Z,1015.50
2019-04-11T04:37:09.742Z,1015.55
2019-04-11T04:38:11.284Z,1015.55
2019-04-11T04:39:10.657Z,1015.59
2019-04-11T04:40:27.990Z,1015.60
2019-04-11T04:41:19.713Z,1015.64
2019-04-11T04:42:19.773Z,1015.59
2019-04-11T04:43:11.479Z,1015.66
2019-04-11T04:44:09.591Z,1015.61
2019-04-11T04:45:11.781Z,1015.61
2019-04-11T04:46:25.958Z,1015.63
2019-04-11T04:47:19.413Z,1015.62
2019-04-11T04:48:12.541Z,1015.66
2019-04-11T04:49:11.027Z,1015.68
2019-04-11T04:50:11.068Z,1015.68
2019-04-11T04:51:11.234Z,1015.66
2019-04-11T04:52:11.778Z,1015.72
2019-04-11T04:53:09.392Z,1015.70
2019-04-11T04:54:10.061Z,1015.75
2019-04-11T04:55:10.622Z,1015.75
2019-04-11T04:56:10.979Z,1015.78
2019-04-11T04:57:12.470Z,1015.78
2019-04-11T04:58:09.285Z,1015.79
2019-04-11T04:59:10.072Z,1015.80
2019-04-11T05:00:09.502Z,1015.80
2019-04-11T05:01:10.030Z,1015.84
2019-04-11T05:02:10.966Z,1015.81
2019-04-11T05:03:09.873Z,1015.84
2019-04-11T05:04:11.199Z,1015.88
2019-04-11T05:05:09.553Z,1015.85
2019-04-11T05:06:10.134Z,1015.87
2019-04-11T05:07:09.653Z,1015.87
2019-04-11T05:08:10.631Z,1015.85
2019-04-11T05:09:10.585Z,1015.84
2019-04-11T05:10:09.119Z,1015.86
2019-04-11T05:11:08.996Z,1015.91
2019-04-11T05:12:09.876Z,1015.91
2019-04-11T05:13:09.911Z,1015.94
2019-04-11T05:14:10.378Z,1015.95
2019-04-11T05:15:10.017Z,1015.95
2019-04-11T05:16:17.208Z,1015.95
2019-04-11T05:17:08.871Z,1015.95
2019-04-11T05:18:11.354Z,1015.94
2019-04-11T05:19:08.815Z,1015.96
2019-04-11T05:20:09.245Z,1015.97
2019-04-11T05:21:08.786Z,1015.98
2019-04-11T05:22:08.751Z,1015.98
2019-04-11T05:23:08.742Z,1015.99
2019-04-11T05:24:08.710Z,1015.96
2019-04-11T05:25:08.718Z,1015.97
2019-04-11T05:26:08.914Z,1015.98
2019-04-11T05:27:08.639Z,1016.00
2019-04-11T05:28:09.824Z,1015.97
2019-04-11T05:29:09.095Z,1016.01
2019-04-11T05:30:09.372Z,1016.01
2019-04-11T05:31:08.551Z,1016.02
2019-04-11T05:32:09.379Z,1016.02
2019-04-11T05:33:09.569Z,1016.05
2019-04-11T05:34:08.490Z,1016.09
2019-04-11T05:35:08.953Z,1016.10
2019-04-11T05:36:08.450Z,1016.13
2019-04-11T05:37:09.029Z,1016.13
2019-04-11T05:38:08.427Z,1016.09
2019-04-11T05:39:08.779Z,1016.14
2019-04-11T05:40:09.290Z,1016.10
2019-04-11T05:41:12.030Z,1016.10
2019-04-11T05:42:09.183Z,1016.12
2019-04-11T05:43:08.296Z,1016.12
2019-04-11T05:44:10.764Z,1016.12
2019-04-11T05:45:15.330Z,1016.12
2019-04-11T05:46:25.099Z,1016.10
2019-04-11T05:47:09.006Z,1016.12
2019-04-11T05:48:09.326Z,1016.11
2019-04-11T05:49:09.222Z,1016.15
2019-04-11T05:50:11.621Z,1016.12
2019-04-11T05:51:08.887Z,1016.10
2019-04-11T05:52:08.215Z,1016.17
2019-04-11T05:53:08.073Z,1016.13
2019-04-11T05:54:09.546Z,1016.15
2019-04-11T05:55:11.762Z,1016.20
2019-04-11T05:56:09.069Z,1016.16
2019-04-11T05:57:09.012Z,1016.17
2019-04-11T05:58:12.290Z,1016.16
2019-04-11T05:59:07.945Z,1016.16
2019-04-11T06:00:07.923Z,1016.21
2019-04-11T06:01:10.029Z,1016.21
2019-04-11T06:02:09.225Z,1016.23
2019-04-11T06:03:07.907Z,1016.21
2019-04-11T06:04:07.953Z,1016.25
2019-04-11T06:05:08.935Z,1016.28
2019-04-11T06:06:08.637Z,1016.27
2019-04-11T06:07:09.930Z,1016.27
2019-04-11T06:08:07.767Z,1016.27
2019-04-11T06:09:10.131Z,1016.26
2019-04-11T06:10:10.145Z,1016.29
2019-04-11T06:11:07.690Z,1016.27
2019-04-11T06:12:07.668Z,1016.29
2019-04-11T06:13:07.959Z,1016.30
2019-04-11T06:14:07.626Z,1016.30
2019-04-11T06:15:08.081Z,1016.31
2019-04-11T06:16:08.263Z,1016.29
2019-04-11T06:17:07.566Z,1016.31
2019-04-11T06:18:07.547Z,1016.30
2019-04-11T06:19:08.061Z,1016.32
2019-04-11T06:20:08.235Z,1016.33
2019-04-11T06:21:07.580Z,1016.36
2019-04-11T06:22:08.582Z,1016.36
2019-04-11T06:23:07.425Z,1016.37
2019-04-11T06:24:07.770Z,1016.38
2019-04-11T06:25:09.179Z,1016.35
2019-04-11T06:26:09.186Z,1016.38
2019-04-11T06:27:08.844Z,1016.39
2019-04-11T06:28:07.321Z,1016.39
2019-04-11T06:29:15.464Z,1016.45
2019-04-11T06:30:07.552Z,1016.44
2019-04-11T06:31:07.583Z,1016.44
2019-04-11T06:32:07.678Z,1016.48
2019-04-11T06:33:08.041Z,1016.50
2019-04-11T06:34:07.256Z,1016.52
2019-04-11T06:35:08.056Z,1016.53
2019-04-11T06:36:07.150Z,1016.52
2019-04-11T06:37:07.633Z,1016.52
2019-04-11T06:38:08.137Z,1016.53
2019-04-11T06:39:07.202Z,1016.56
2019-04-11T06:40:07.627Z,1016.58
2019-04-11T06:41:08.302Z,1016.61
2019-04-11T06:42:07.697Z,1016.63
2019-04-11T06:43:07.817Z,1016.63
2019-04-11T06:44:06.988Z,1016.66
2019-04-11T06:45:09.209Z,1016.67
2019-04-11T06:46:07.134Z,1016.72
2019-04-11T06:47:06.934Z,1016.80
2019-04-11T06:48:07.386Z,1016.93
2019-04-11T06:49:06.881Z,1016.99
2019-04-11T06:50:06.945Z,1017.09
2019-04-11T06:51:07.950Z,1017.14
2019-04-11T06:52:06.823Z,1017.17
2019-04-11T06:53:07.899Z,1017.21
2019-04-11T06:54:06.793Z,1017.24
2019-04-11T06:55:06.773Z,1017.27
2019-04-11T06:56:06.754Z,1017.28
2019-04-11T06:57:07.653Z,1017.30
2019-04-11T06:58:06.827Z,1017.37
2019-04-11T06:59:07.914Z,1017.38
2019-04-11T07:00:07.307Z,1017.43
2019-04-11T07:01:06.689Z,1017.43
2019-04-11T07:02:13.916Z,1017.46
2019-04-11T07:03:17.430Z,1017.43
2019-04-11T07:04:06.649Z,1017.45
2019-04-11T07:05:07.870Z,1017.46
2019-04-11T07:06:07.015Z,1017.53
2019-04-11T07:07:06.612Z,1017.48
2019-04-11T07:08:07.657Z,1017.53
2019-04-11T07:09:07.415Z,1017.50
2019-04-11T07:10:06.570Z,1017.47
2019-04-11T07:11:07.294Z,1017.52
2019-04-11T07:12:07.531Z,1017.52
2019-04-11T07:13:07.682Z,1017.52
2019-04-11T07:14:06.530Z,1017.56
2019-04-11T07:15:06.656Z,1017.55
2019-04-11T07:16:06.507Z,1017.59
2019-04-11T07:17:09.027Z,1017.65
2019-04-11T07:18:07.625Z,1017.63
2019-04-11T07:19:06.481Z,1017.62
2019-04-11T07:20:06.791Z,1017.69
2019-04-11T07:21:06.476Z,1017.71
2019-04-11T07:22:06.841Z,1017.75
2019-04-11T07:23:06.443Z,1017.74
2019-04-11T07:24:07.495Z,1017.77
2019-04-11T07:25:06.433Z,1017.78
2019-04-11T07:26:06.426Z,1017.82
2019-04-11T07:27:07.424Z,1017.85
2019-04-11T07:28:06.405Z,1017.80
2019-04-11T07:29:06.607Z,1017.82
2019-04-11T07:30:07.282Z,1017.80
2019-04-11T07:31:06.874Z,1017.82
2019-04-11T07:32:06.394Z,1017.86
2019-04-11T07:33:06.380Z,1017.89
2019-04-11T07:34:06.369Z,1017.89
2019-04-11T07:35:06.432Z,1017.88
2019-04-11T07:36:06.357Z,1017.93
2019-04-11T07:37:06.831Z,1017.94
2019-04-11T07:38:06.354Z,1017.92
2019-04-11T07:39:07.648Z,1017.94
2019-04-11T07:40:07.495Z,1017.99
2019-04-11T07:41:06.698Z,1018.00
2019-04-11T07:42:07.048Z,1017.99
2019-04-11T07:43:11.534Z,1018.00
2019-04-11T07:44:06.438Z,1017.98
2019-04-11T07:45:06.573Z,1018.02
2019-04-11T07:46:06.837Z,1017.98
2019-04-11T07:47:14.595Z,1018.01
2019-04-11T07:48:07.167Z,1018.00
2019-04-11T07:49:06.294Z,1018.06
2019-04-11T07:50:06.290Z,1018.07
2019-04-11T07:51:06.517Z,1018.06
2019-04-11T07:52:06.802Z,1018.06
2019-04-11T07:53:06.282Z,1018.06
2019-04-11T07:54:06.273Z,1018.06
2019-04-11T07:55:06.764Z,1018.06
2019-04-11T07:56:07.675Z,1018.05
2019-04-11T07:57:06.264Z,1018.10
2019-04-11T07:58:06.442Z,1018.11
2019-04-11T07:59:07.332Z,1018.12
2019-04-11T08:00:06.262Z,1018.08
2019-04-11T08:01:06.267Z,1018.12
2019-04-11T08:02:06.259Z,1018.11
2019-04-11T08:03:06.407Z,1018.05
2019-04-11T08:04:06.261Z,1018.13
2019-04-11T08:05:06.677Z,1018.14
2019-04-11T08:06:07.387Z,1018.12
2019-04-11T08:07:06.605Z,1018.15
2019-04-11T08:08:06.841Z,1018.16
2019-04-11T08:09:07.192Z,1018.16
2019-04-11T08:10:06.234Z,1018.15
2019-04-11T08:11:06.728Z,1018.20
2019-04-11T08:12:06.611Z,1018.17
2019-04-11T08:13:06.228Z,1018.17
2019-04-11T08:14:06.444Z,1018.15
2019-04-11T08:15:07.075Z,1018.20
2019-04-11T08:16:06.466Z,1018.24
2019-04-11T08:17:07.228Z,1018.26
2019-04-11T08:18:06.224Z,1018.26
2019-04-11T08:19:06.227Z,1018.22
2019-04-11T08:20:06.223Z,1018.23
2019-04-11T08:21:06.222Z,1018.28
2019-04-11T08:22:06.409Z,1018.23
2019-04-11T08:23:06.216Z,1018.27
2019-04-11T08:24:06.217Z,1018.31
2019-04-11T08:25:07.190Z,1018.33
2019-04-11T08:26:06.211Z,1018.30
2019-04-11T08:27:07.231Z,1018.36
2019-04-11T08:28:07.951Z,1018.36
2019-04-11T08:29:10.423Z,1018.36
2019-04-11T08:30:06.633Z,1018.38
2019-04-11T08:31:06.216Z,1018.39
2019-04-11T08:32:06.224Z,1018.41
2019-04-11T08:33:07.500Z,1018.40
2019-04-11T08:34:06.939Z,1018.42
2019-04-11T08:35:06.205Z,1018.41
2019-04-11T08:36:07.315Z,1018.40
2019-04-11T08:37:07.320Z,1018.45
2019-04-11T08:38:06.203Z,1018.39
2019-04-11T08:39:06.903Z,1018.43
2019-04-11T08:40:06.202Z,1018.43
2019-04-11T08:41:07.311Z,1018.45
2019-04-11T08:42:07.250Z,1018.45
2019-04-11T08:43:06.690Z,1018.44
2019-04-11T08:44:06.201Z,1018.50
2019-04-11T08:45:06.206Z,1018.46
2019-04-11T08:46:06.712Z,1018.52
2019-04-11T08:47:06.207Z,1018.47
2019-04-11T08:48:06.199Z,1018.50
2019-04-11T08:49:06.207Z,1018.49
2019-04-11T08:50:06.206Z,1018.47
2019-04-11T08:51:08.044Z,1018.48
2019-04-11T08:52:06.196Z,1018.47
2019-04-11T08:53:06.605Z,1018.52
2019-04-11T08:54:07.043Z,1018.54
2019-04-11T08:55:06.297Z,1018.61
2019-04-11T08:56:07.130Z,1018.65
2019-04-11T08:57:06.194Z,1018.68
2019-04-11T08:58:06.482Z,1018.65
2019-04-11T08:59:06.192Z,1018.63
2019-04-11T09:00:06.247Z,1018.67
2019-04-11T09:01:07.395Z,1018.66
2019-04-11T09:02:06.822Z,1018.66
2019-04-11T09:03:07.251Z,1018.63
2019-04-11T09:04:10.192Z,1018.60
2019-04-11T09:05:12.015Z,1018.58
2019-04-11T09:06:06.361Z,1018.52
2019-04-11T09:07:07.271Z,1018.56
2019-04-11T09:08:06.170Z,1018.57
2019-04-11T09:09:07.039Z,1018.57
2019-04-11T09:10:07.310Z,1018.60
2019-04-11T09:11:06.529Z,1018.56
2019-04-11T09:12:06.579Z,1018.61
2019-04-11T09:13:07.049Z,1018.56
2019-04-11T09:14:06.190Z,1018.56
2019-04-11T09:15:06.153Z,1018.55
2019-04-11T09:16:06.154Z,1018.55
2019-04-11T09:17:06.146Z,1018.54
2019-04-11T09:18:09.527Z,1018.54
2019-04-11T09:19:06.362Z,1018.65
2019-04-11T09:20:07.349Z,1018.48
2019-04-11T09:21:06.137Z,1018.60
2019-04-11T09:22:06.791Z,1018.57
2019-04-11T09:23:06.120Z,1018.51
2019-04-11T09:24:06.204Z,1018.48
2019-04-11T09:25:07.249Z,1018.46
2019-04-11T09:26:06.113Z,1018.38
2019-04-11T09:27:06.581Z,1018.43
2019-04-11T09:28:06.106Z,1018.38
2019-04-11T09:29:07.235Z,1017.79
2019-04-11T09:30:06.682Z,1017.87
2019-04-11T09:31:08.942Z,1017.81
2019-04-11T09:32:06.091Z,1017.99
2019-04-11T09:33:06.797Z,1017.92
2019-04-11T09:34:06.054Z,1017.88
2019-04-11T09:35:06.202Z,1017.87
2019-04-11T09:36:06.046Z,1017.91
2019-04-11T09:37:06.170Z,1017.85
2019-04-11T09:38:06.411Z,1017.86
2019-04-11T09:39:06.625Z,1017.86
2019-04-11T09:40:06.029Z,1017.86
2019-04-11T09:41:06.128Z,1017.84
2019-04-11T09:42:07.086Z,1017.78
2019-04-11T09:43:07.114Z,1017.78
2019-04-11T09:44:06.554Z,1017.75
2019-04-11T09:45:05.971Z,1017.73
2019-04-11T09:46:06.241Z,1017.72
2019-04-11T09:47:05.953Z,1017.70
2019-04-11T09:48:11.619Z,1017.75
2019-04-11T09:49:06.694Z,1017.68
2019-04-11T09:50:05.936Z,1017.70
2019-04-11T09:51:05.919Z,1017.68
2019-04-11T09:52:07.241Z,1017.71
2019-04-11T09:53:05.902Z,1017.76
2019-04-11T09:54:05.895Z,1017.74
2019-04-11T09:55:06.566Z,1017.74
2019-04-11T09:56:06.847Z,1017.77
2019-04-11T09:57:05.870Z,1017.75
2019-04-11T09:58:06.689Z,1017.66
2019-04-11T09:59:06.803Z,1017.70
2019-04-11T10:00:05.991Z,1017.65
2019-04-11T10:01:06.212Z,1017.69
2019-04-11T10:02:05.997Z,1017.69
2019-04-11T10:03:06.656Z,1017.65
2019-04-11T10:04:06.509Z,1017.63
2019-04-11T10:05:05.793Z,1017.63
2019-04-11T10:06:05.791Z,1017.69
2019-04-11T10:07:05.775Z,1017.51
2019-04-11T10:08:06.512Z,1017.61
2019-04-11T10:09:05.848Z,1017.52
2019-04-11T10:10:05.747Z,1017.64
2019-04-11T10:11:05.845Z,1017.51
2019-04-11T10:12:06.518Z,1017.53
2019-04-11T10:13:06.805Z,1017.52
2019-04-11T10:14:07.138Z,1017.52
2019-04-11T10:15:07.071Z,1017.61
2019-04-11T10:16:05.686Z,1017.63
2019-04-11T10:17:06.716Z,1017.64
2019-04-11T10:18:05.675Z,1017.63
2019-04-11T10:19:05.656Z,1017.63
2019-04-11T10:20:06.616Z,1017.63
2019-04-11T10:21:06.786Z,1017.59
2019-04-11T10:22:06.807Z,1017.62
2019-04-11T10:23:05.618Z,1017.57
2019-04-11T10:24:05.617Z,1017.54
2019-04-11T10:25:05.594Z,1017.59
2019-04-11T10:26:05.583Z,1017.62
2019-04-11T10:27:06.707Z,1017.58
2019-04-11T10:28:05.608Z,1017.56
2019-04-11T10:29:06.469Z,1017.60
2019-04-11T10:30:06.559Z,1017.43
2019-04-11T10:31:06.406Z,1017.47
2019-04-11T10:32:06.613Z,1017.58
2019-04-11T10:33:06.623Z,1017.58
2019-04-11T10:34:06.151Z,1017.49
2019-04-11T10:35:06.033Z,1017.60
2019-04-11T10:36:05.485Z,1017.49
2019-04-11T10:37:05.466Z,1017.44
2019-04-11T10:38:06.706Z,1017.49
2019-04-11T10:39:05.443Z,1017.48
2019-04-11T10:40:05.956Z,1017.45
2019-04-11T10:41:06.312Z,1017.44
2019-04-11T10:42:06.345Z,1017.45
2019-04-11T10:43:05.397Z,1017.41
2019-04-11T10:44:05.610Z,1017.49
2019-04-11T10:45:06.574Z,1017.54
2019-04-11T10:46:05.364Z,1017.42
2019-04-11T10:47:08.105Z,1017.38
2019-04-11T10:48:05.581Z,1017.44
2019-04-11T10:49:05.449Z,1017.49
2019-04-11T10:50:05.328Z,1017.36
2019-04-11T10:51:06.601Z,1017.44
2019-04-11T10:52:06.466Z,1017.41
2019-04-11T10:53:05.297Z,1017.46
2019-04-11T10:54:06.939Z,1017.45
2019-04-11T10:55:05.300Z,1017.49
2019-04-11T10:56:06.327Z,1017.50
2019-04-11T10:57:05.648Z,1017.43
2019-04-11T10:58:05.223Z,1017.49
2019-04-11T10:59:05.251Z,1017.45
2019-04-11T11:00:05.197Z,1017.48
2019-04-11T11:01:05.186Z,1017.47
2019-04-11T11:02:06.530Z,1017.42
2019-04-11T11:03:06.144Z,1017.52
2019-04-11T11:04:05.250Z,1017.57
2019-04-11T11:05:05.317Z,1017.50
2019-04-11T11:06:05.467Z,1017.44
2019-04-11T11:07:06.389Z,1017.37
2019-04-11T11:08:05.101Z,1017.48
2019-04-11T11:09:05.995Z,1017.55
2019-04-11T11:10:05.076Z,1017.60
2019-04-11T11:11:06.071Z,1017.54
2019-04-11T11:12:05.148Z,1017.63
2019-04-11T11:13:05.633Z,1017.61
2019-04-11T11:14:05.032Z,1017.56
2019-04-11T11:15:05.027Z,1017.54
2019-04-11T11:16:05.834Z,1017.47
2019-04-11T11:17:05.005Z,1017.48
2019-04-11T11:18:33.331Z,1017.57
2019-04-11T11:19:27.366Z,1017.55
2019-04-11T11:20:16.744Z,1017.56
2019-04-11T11:21:06.011Z,1017.52
2019-04-11T11:22:05.313Z,1017.50
2019-04-11T11:23:09.066Z,1017.52
2019-04-11T11:24:07.206Z,1017.54
2019-04-11T11:25:04.896Z,1017.47
2019-04-11T11:26:04.919Z,1017.49
2019-04-11T11:27:05.725Z,1017.58
2019-04-11T11:28:05.446Z,1017.52
2019-04-11T11:29:08.375Z,1017.50
2019-04-11T11:30:06.065Z,1017.54
2019-04-11T11:31:05.478Z,1017.57
2019-04-11T11:32:05.189Z,1017.53
2019-04-11T11:33:05.740Z,1017.54
2019-04-11T11:34:05.006Z,1017.54
2019-04-11T11:35:05.332Z,1017.54
2019-04-11T11:36:08.987Z,1017.52
2019-04-11T11:37:04.887Z,1017.57
2019-04-11T11:38:05.946Z,1017.55
2019-04-11T11:39:04.723Z,1017.58
2019-04-11T11:40:10.594Z,1017.55
2019-04-11T11:41:05.819Z,1017.58
2019-04-11T11:42:04.691Z,1017.58
2019-04-11T11:43:04.681Z,1017.54
2019-04-11T11:44:05.608Z,1017.55
2019-04-11T11:45:05.627Z,1017.56
2019-04-11T11:46:04.765Z,1017.60
2019-04-11T11:47:05.494Z,1017.57
2019-04-11T11:48:09.951Z,1017.58
2019-04-11T11:49:05.827Z,1017.51
2019-04-11T11:50:06.144Z,1017.51
2019-04-11T11:51:05.460Z,1017.54
2019-04-11T11:52:04.731Z,1017.49
2019-04-11T11:53:08.159Z,1017.52
2019-04-11T11:54:05.190Z,1017.47
2019-04-11T11:55:04.508Z,1017.48
2019-04-11T11:56:05.372Z,1017.46
2019-04-11T11:57:04.635Z,1017.41
2019-04-11T11:58:04.464Z,1017.45
2019-04-11T11:59:04.450Z,1017.45
2019-04-11T12:00:05.025Z,1017.45
2019-04-11T12:01:08.168Z,1017.45
2019-04-11T12:02:04.508Z,1017.39
2019-04-11T12:03:05.318Z,1017.45
2019-04-11T12:04:04.975Z,1017.41
2019-04-11T12:05:07.883Z,1017.40
2019-04-11T12:06:05.282Z,1017.40
2019-04-11T12:07:06.006Z,1017.44